createdAt,value
2018-09-29T00:00:56.838Z,54.01
2018-09-29T00:03:27.171Z,54.25
2018-09-29T00:05:57.862Z,53.93
2018-09-29T00:08:28.196Z,53.76
2018-09-29T00:10:58.441Z,54.75
2018-09-29T00:13:28.697Z,56.14
2018-09-29T00:15:59.059Z,57.74
2018-09-29T00:18:29.583Z,57.05
2018-09-29T00:20:59.907Z,57.26
2018-09-29T00:23:30.199Z,55.55
2018-09-29T00:26:00.467Z,55.81
2018-09-29T00:28:30.712Z,55.63
2018-09-29T00:31:01.104Z,55.56
2018-09-29T00:33:31.351Z,57.63
2018-09-29T00:36:01.598Z,59.74
2018-09-29T00:38:31.889Z,59.71
2018-09-29T00:41:02.149Z,59.89
2018-09-29T00:43:32.929Z,59.69
2018-09-29T00:46:03.756Z,59.38
2018-09-29T00:48:34.208Z,59.38
2018-09-29T00:51:04.930Z,59.47
2018-09-29T00:53:35.351Z,59.25
2018-09-29T00:56:05.595Z,57.98
2018-09-29T00:58:35.840Z,57.43
2018-09-29T01:01:06.640Z,56.44
2018-09-29T01:03:36.902Z,56.00
2018-09-29T01:06:07.187Z,57.55
2018-09-29T01:08:37.663Z,58.06
2018-09-29T01:11:07.977Z,57.86
2018-09-29T01:13:38.245Z,58.32
2018-09-29T01:16:08.671Z,59.79
2018-09-29T01:18:38.941Z,57.11
2018-09-29T01:21:10.823Z,56.90
2018-09-29T01:23:41.073Z,57.44
2018-09-29T01:26:11.424Z,58.00
2018-09-29T01:28:41.771Z,57.29
2018-09-29T01:31:12.046Z,56.06
2018-09-29T01:33:42.288Z,55.50
2018-09-29T01:36:12.796Z,56.06
2018-09-29T01:38:43.049Z,56.25
2018-09-29T01:41:13.297Z,57.96
2018-09-29T01:43:43.628Z,59.17
2018-09-29T01:46:13.872Z,58.62
2018-09-29T01:48:44.121Z,58.64
2018-09-29T01:51:14.511Z,57.99
2018-09-29T01:53:44.756Z,58.20
2018-09-29T01:56:15.076Z,57.22
2018-09-29T01:58:45.355Z,57.97
2018-09-29T02:01:15.806Z,56.75
2018-09-29T02:03:46.151Z,58.00
2018-09-29T02:06:16.404Z,59.13
2018-09-29T02:08:46.673Z,59.25
2018-09-29T02:11:16.969Z,58.25
2018-09-29T02:13:47.227Z,56.85
2018-09-29T02:16:17.509Z,57.84
2018-09-29T02:18:47.810Z,58.70
2018-09-29T02:21:18.082Z,59.54
2018-09-29T02:23:48.436Z,61.11
2018-09-29T02:26:19.272Z,61.30
2018-09-29T02:28:49.600Z,60.09
2018-09-29T02:31:20.029Z,59.92
2018-09-29T02:33:50.305Z,59.78
2018-09-29T02:36:20.595Z,60.07
2018-09-29T02:38:50.842Z,62.24
2018-09-29T02:41:21.075Z,62.74
2018-09-29T02:43:51.424Z,64.21
2018-09-29T02:46:21.677Z,65.99
2018-09-29T02:48:51.929Z,65.97
2018-09-29T02:51:24.960Z,63.81
2018-09-29T02:53:55.229Z,64.96
2018-09-29T02:56:25.519Z,61.48
2018-09-29T02:58:55.759Z,60.87
2018-09-29T03:01:26.073Z,61.83
2018-09-29T03:03:56.462Z,60.81
2018-09-29T03:06:26.944Z,60.16
2018-09-29T03:08:57.209Z,60.40
2018-09-29T03:11:27.481Z,61.34
2018-09-29T03:13:57.743Z,62.58
2018-09-29T03:16:27.981Z,60.93
2018-09-29T03:18:57.416Z,61.08
2018-09-29T03:21:26.572Z,61.42
2018-09-29T03:23:55.756Z,60.14
2018-09-29T03:26:24.996Z,60.34
2018-09-29T03:28:54.143Z,60.73
2018-09-29T03:31:23.342Z,59.03
2018-09-29T03:33:52.754Z,59.52
2018-09-29T03:36:21.920Z,60.48
2018-09-29T03:38:51.093Z,61.62
2018-09-29T03:41:20.387Z,63.38
2018-09-29T03:43:49.561Z,64.65
2018-09-29T03:46:19.931Z,65.55
2018-09-29T03:48:53.035Z,65.30
2018-09-29T03:51:23.288Z,65.05
2018-09-29T03:53:53.647Z,64.15
2018-09-29T03:56:24.008Z,63.00
2018-09-29T03:58:55.102Z,62.42
2018-09-29T04:01:25.736Z,61.43
2018-09-29T04:03:55.992Z,60.57
2018-09-29T04:06:26.284Z,60.74
2018-09-29T04:08:56.556Z,60.67
2018-09-29T04:11:26.833Z,61.13
2018-09-29T04:13:57.218Z,61.22
2018-09-29T04:16:27.697Z,63.04
2018-09-29T04:18:57.958Z,63.71
2018-09-29T04:21:32.343Z,63.52
2018-09-29T04:24:02.603Z,62.93
2018-09-29T04:26:32.877Z,63.12
2018-09-29T04:29:03.261Z,63.54
2018-09-29T04:31:33.502Z,63.49
2018-09-29T04:34:03.759Z,63.60
2018-09-29T04:36:34.029Z,64.13
2018-09-29T04:39:05.501Z,63.68
2018-09-29T04:41:35.871Z,63.06
2018-09-29T04:44:06.370Z,62.84
2018-09-29T04:46:37.073Z,63.11
2018-09-29T04:49:07.571Z,62.41
2018-09-29T04:51:38.086Z,60.52
2018-09-29T04:54:08.471Z,60.96
2018-09-29T04:56:38.840Z,61.35
2018-09-29T04:59:09.169Z,61.79
2018-09-29T05:01:41.991Z,61.53
2018-09-29T05:04:12.381Z,61.11
2018-09-29T05:06:42.787Z,60.31
2018-09-29T05:09:13.085Z,60.24
2018-09-29T05:11:43.367Z,61.60
2018-09-29T05:14:13.632Z,62.14
2018-09-29T05:16:43.950Z,58.43
2018-09-29T05:19:14.232Z,59.10
2018-09-29T05:21:44.608Z,59.16
2018-09-29T05:24:14.894Z,59.99
2018-09-29T05:26:45.216Z,60.40
2018-09-29T05:29:15.473Z,60.27
2018-09-29T05:31:45.964Z,60.03
2018-09-29T05:34:16.279Z,59.39
2018-09-29T05:36:46.550Z,57.01
2018-09-29T05:39:17.332Z,58.10
2018-09-29T05:41:47.639Z,57.66
2018-09-29T05:44:18.267Z,56.84
2018-09-29T05:46:48.529Z,56.17
2018-09-29T05:49:18.822Z,57.13
2018-09-29T05:51:49.139Z,56.35
2018-09-29T05:54:19.521Z,54.45
2018-09-29T05:58:13.888Z,53.77
2018-09-29T06:00:44.178Z,52.74
2018-09-29T06:03:14.475Z,51.37
2018-09-29T06:05:44.856Z,51.06
2018-09-29T06:08:15.429Z,49.92
2018-09-29T06:10:45.696Z,50.55
2018-09-29T06:13:16.560Z,50.38
2018-09-29T06:15:47.040Z,49.34
2018-09-29T06:18:17.336Z,49.35
2018-09-29T06:20:47.663Z,50.11
2018-09-29T06:23:18.140Z,48.91
2018-09-29T06:25:48.414Z,50.09
2018-09-29T06:28:18.719Z,48.89
2018-09-29T06:30:49.225Z,46.00
2018-09-29T06:35:54.767Z,47.26
2018-09-29T06:38:25.046Z,47.19
2018-09-29T06:40:55.475Z,47.05
2018-09-29T06:43:25.921Z,46.16
2018-09-29T06:45:56.293Z,43.63
2018-09-29T06:48:26.553Z,42.18
2018-09-29T06:50:56.890Z,43.45
2018-09-29T06:53:27.305Z,43.50
2018-09-29T06:55:57.725Z,42.74
2018-09-29T06:58:27.990Z,45.05
2018-09-29T07:00:58.348Z,45.27
2018-09-29T07:03:28.613Z,44.07
2018-09-29T07:05:59.668Z,44.55
2018-09-29T07:08:29.943Z,43.73
2018-09-29T07:11:00.272Z,43.61
2018-09-29T07:13:30.585Z,42.69
2018-09-29T07:16:00.924Z,43.66
2018-09-29T07:18:31.822Z,43.78
2018-09-29T07:21:02.144Z,43.22
2018-09-29T07:23:32.495Z,44.83
2018-09-29T07:26:02.769Z,42.66
2018-09-29T07:28:33.120Z,43.35
2018-09-29T07:31:03.408Z,41.45
2018-09-29T07:33:33.706Z,40.78
2018-09-29T07:36:04.137Z,41.46
2018-09-29T07:38:34.474Z,41.17
2018-09-29T07:41:04.790Z,41.53
2018-09-29T07:43:35.159Z,39.76
2018-09-29T07:46:05.549Z,41.33
2018-09-29T07:48:36.811Z,39.55
2018-09-29T07:51:07.275Z,40.12
2018-09-29T07:53:37.991Z,38.90
2018-09-29T07:56:08.435Z,40.05
2018-09-29T07:58:38.911Z,39.78
2018-09-29T08:01:09.221Z,41.78
2018-09-29T08:03:39.557Z,38.16
2018-09-29T08:06:09.896Z,37.93
2018-09-29T08:08:40.196Z,36.93
2018-09-29T08:11:10.872Z,37.80
2018-09-29T08:13:41.265Z,35.55
2018-09-29T08:16:11.629Z,37.73
2018-09-29T08:18:41.963Z,36.28
2018-09-29T08:21:12.304Z,35.23
2018-09-29T08:23:42.624Z,35.36
2018-09-29T08:26:13.421Z,35.57
2018-09-29T08:28:43.692Z,33.89
2018-09-29T08:31:13.992Z,33.96
2018-09-29T08:33:44.306Z,33.76
2018-09-29T08:36:14.564Z,32.88
2018-09-29T08:38:44.873Z,33.44
2018-09-29T08:41:15.287Z,34.40
2018-09-29T08:43:45.573Z,32.27
2018-09-29T08:46:15.880Z,32.84
2018-09-29T08:48:46.214Z,32.44
2018-09-29T08:51:16.493Z,32.76
2018-09-29T08:53:46.835Z,32.11
2018-09-29T08:56:17.466Z,32.34
2018-09-29T08:58:47.760Z,32.11
2018-09-29T09:01:18.708Z,33.74
2018-09-29T09:03:49.967Z,33.64
2018-09-29T09:06:20.851Z,34.82
2018-09-29T09:08:51.721Z,34.20
2018-09-29T09:11:22.718Z,34.18
2018-09-29T09:13:53.544Z,34.81
2018-09-29T09:16:24.454Z,34.88
2018-09-29T09:18:55.309Z,33.17
2018-09-29T09:21:26.218Z,33.28
2018-09-29T09:23:57.163Z,34.20
2018-09-29T09:26:28.754Z,35.38
2018-09-29T09:28:59.848Z,35.02
2018-09-29T09:31:30.740Z,35.59
2018-09-29T09:34:01.604Z,35.79
2018-09-29T09:36:32.493Z,36.50
2018-09-29T09:39:04.672Z,37.66
2018-09-29T09:41:35.628Z,37.97
2018-09-29T09:44:06.766Z,37.42
2018-09-29T09:46:38.506Z,37.17
2018-09-29T09:49:09.333Z,37.09
2018-09-29T09:51:40.222Z,37.36
2018-09-29T09:54:11.074Z,36.76
2018-09-29T09:56:42.496Z,37.50
2018-09-29T09:59:13.774Z,38.43
2018-09-29T10:03:54.301Z,38.52
2018-09-29T10:06:25.241Z,38.29
2018-09-29T10:08:56.354Z,38.41
2018-09-29T10:11:27.249Z,38.58
2018-09-29T10:13:58.442Z,37.70
2018-09-29T10:16:29.297Z,37.99
2018-09-29T10:19:00.143Z,38.21
2018-09-29T10:21:30.976Z,39.69
2018-09-29T10:24:01.943Z,37.54
2018-09-29T10:26:32.769Z,38.16
2018-09-29T10:29:04.130Z,39.19
2018-09-29T10:31:34.963Z,38.20
2018-09-29T10:34:05.883Z,39.99
2018-09-29T10:36:36.703Z,38.94
2018-09-29T10:39:10.196Z,39.89
2018-09-29T10:41:41.607Z,39.66
2018-09-29T10:44:13.258Z,37.39
2018-09-29T10:46:44.313Z,38.11
2018-09-29T10:49:15.186Z,37.19
2018-09-29T10:51:46.508Z,37.34
2018-09-29T10:54:17.428Z,35.14
2018-09-29T10:56:48.416Z,34.89
2018-09-29T10:59:19.389Z,34.64
2018-09-29T11:01:50.264Z,34.48
2018-09-29T11:04:21.136Z,34.60
2018-09-29T11:06:53.593Z,35.58
2018-09-29T11:09:24.498Z,33.15
2018-09-29T11:11:55.334Z,32.42
2018-09-29T11:14:26.360Z,34.03
2018-09-29T11:16:57.415Z,31.43
2018-09-29T11:19:28.287Z,31.93
2018-09-29T11:21:59.124Z,31.57
2018-09-29T11:24:29.997Z,30.74
2018-09-29T11:27:00.902Z,30.95
2018-09-29T11:29:31.824Z,30.83
2018-09-29T11:32:02.692Z,31.42
2018-09-29T11:34:33.577Z,32.19
2018-09-29T11:37:04.433Z,32.14
2018-09-29T11:39:35.377Z,32.28
2018-09-29T11:42:06.222Z,31.79
2018-09-29T11:44:37.145Z,31.55
2018-09-29T11:47:08.016Z,32.13
2018-09-29T11:49:38.894Z,31.67
2018-09-29T11:52:09.737Z,32.59
2018-09-29T11:54:40.596Z,33.11
2018-09-29T11:57:11.528Z,32.02
2018-09-29T11:59:42.444Z,33.00
2018-09-29T12:02:13.465Z,32.68
2018-09-29T12:04:44.656Z,33.27
2018-09-29T12:07:15.596Z,33.47
2018-09-29T12:09:46.591Z,33.58
2018-09-29T12:12:17.441Z,33.98
2018-09-29T12:14:48.405Z,32.99
2018-09-29T12:17:19.267Z,33.77
2018-09-29T12:19:50.123Z,33.79
2018-09-29T12:22:21.026Z,33.76
2018-09-29T12:24:52.049Z,33.73
2018-09-29T12:27:24.920Z,33.94
2018-09-29T12:29:54.518Z,34.39
2018-09-29T12:32:25.566Z,34.52
2018-09-29T12:34:56.473Z,34.38
2018-09-29T12:37:27.402Z,35.15
2018-09-29T12:39:58.436Z,33.96
2018-09-29T12:42:29.279Z,34.95
2018-09-29T12:45:00.254Z,35.52
2018-09-29T12:47:31.332Z,34.67
2018-09-29T12:50:02.207Z,33.86
2018-09-29T12:52:33.038Z,34.58
2018-09-29T12:55:03.943Z,34.19
2018-09-29T12:57:34.875Z,34.80
2018-09-29T13:00:06.366Z,33.22
2018-09-29T13:02:37.216Z,33.22
2018-09-29T13:05:08.245Z,32.75
2018-09-29T13:07:39.305Z,32.15
2018-09-29T13:10:10.213Z,31.99
2018-09-29T13:12:41.147Z,31.59
2018-09-29T13:15:12.080Z,30.43
2018-09-29T13:17:43.148Z,30.93
2018-09-29T13:20:14.061Z,30.83
2018-09-29T13:22:44.939Z,30.96
2018-09-29T13:25:16.034Z,30.05
2018-09-29T13:27:49.104Z,30.36
2018-09-29T13:30:20.067Z,28.88
2018-09-29T13:32:50.893Z,28.11
2018-09-29T13:35:21.767Z,29.63
2018-09-29T13:37:52.608Z,29.67
2018-09-29T13:40:23.467Z,28.74
2018-09-29T13:42:54.318Z,29.63
2018-09-29T13:45:25.245Z,29.90
2018-09-29T13:47:56.087Z,30.34
2018-09-29T13:50:26.949Z,31.35
2018-09-29T13:52:57.805Z,30.65
2018-09-29T13:55:28.667Z,31.56
2018-09-29T13:57:59.624Z,30.61
2018-09-29T14:00:30.569Z,29.76
2018-09-29T14:03:01.435Z,29.32
2018-09-29T14:05:32.300Z,30.33
2018-09-29T14:08:03.114Z,30.61
2018-09-29T14:10:33.969Z,31.30
2018-09-29T14:13:05.451Z,30.00
2018-09-29T14:15:36.659Z,30.75
2018-09-29T14:18:07.516Z,29.58
2018-09-29T14:20:38.377Z,28.70
2018-09-29T14:23:09.221Z,29.18
2018-09-29T14:25:40.213Z,26.98
2018-09-29T14:28:11.049Z,27.24
2018-09-29T14:30:46.185Z,28.12
2018-09-29T14:33:18.942Z,27.97
2018-09-29T14:35:49.821Z,27.97
2018-09-29T14:38:20.667Z,28.31
2018-09-29T14:40:51.643Z,28.79
2018-09-29T14:43:22.488Z,27.93
2018-09-29T14:45:53.410Z,28.38
2018-09-29T14:48:24.301Z,28.90
2018-09-29T14:50:55.265Z,29.29
2018-09-29T14:53:26.128Z,28.93
2018-09-29T14:55:57.057Z,29.15
2018-09-29T14:58:28.099Z,29.28
2018-09-29T15:00:59.163Z,30.17
2018-09-29T15:03:30.037Z,31.12
2018-09-29T15:06:01.011Z,30.66
2018-09-29T15:08:32.072Z,30.62
2018-09-29T15:11:02.947Z,31.16
2018-09-29T15:13:33.773Z,30.78
2018-09-29T15:16:05.113Z,31.71
2018-09-29T15:18:35.945Z,31.35
2018-09-29T15:21:07.025Z,31.70
2018-09-29T15:23:37.885Z,32.23
2018-09-29T15:26:08.902Z,32.37
2018-09-29T15:28:39.876Z,33.04
2018-09-29T15:31:10.894Z,33.22
2018-09-29T15:33:41.738Z,33.07
2018-09-29T15:36:12.640Z,33.72
2018-09-29T15:38:43.472Z,33.67
2018-09-29T15:41:14.355Z,33.25
2018-09-29T15:43:47.710Z,34.01
2018-09-29T15:46:18.728Z,34.13
2018-09-29T15:48:49.615Z,35.24
2018-09-29T15:51:20.676Z,34.58
2018-09-29T15:53:51.588Z,36.32
2018-09-29T15:56:22.459Z,36.54
2018-09-29T15:58:53.389Z,37.07
2018-09-29T16:01:24.336Z,39.18
2018-09-29T16:03:55.187Z,39.64
2018-09-29T16:06:26.073Z,40.67
2018-09-29T16:08:57.057Z,41.53
2018-09-29T16:11:28.129Z,41.92
2018-09-29T16:13:58.976Z,42.82
2018-09-29T16:16:29.898Z,43.17
2018-09-29T16:19:00.761Z,43.46
2018-09-29T16:21:31.689Z,44.45
2018-09-29T16:24:02.701Z,44.55
2018-09-29T16:26:33.580Z,42.37
2018-09-29T16:29:04.438Z,41.84
2018-09-29T16:31:35.377Z,43.70
2018-09-29T16:34:06.225Z,44.80
2018-09-29T16:36:37.531Z,44.46
2018-09-29T16:39:11.832Z,45.55
2018-09-29T16:41:43.119Z,45.89
2018-09-29T16:44:13.976Z,45.92
2018-09-29T16:46:44.922Z,46.26
2018-09-29T16:49:15.780Z,46.35
2018-09-29T16:51:46.686Z,46.72
2018-09-29T16:54:17.570Z,47.62
2018-09-29T16:56:48.944Z,47.77
2018-09-29T16:59:19.904Z,48.93
2018-09-29T17:01:50.864Z,51.91
2018-09-29T17:04:21.742Z,49.60
2018-09-29T17:06:52.864Z,48.29
2018-09-29T17:09:23.760Z,47.00
2018-09-29T17:11:54.653Z,47.21
2018-09-29T17:14:25.504Z,48.83
2018-09-29T17:16:56.452Z,48.35
2018-09-29T17:19:27.958Z,49.28
2018-09-29T17:21:59.067Z,50.02
2018-09-29T17:24:30.164Z,50.30
2018-09-29T17:27:01.073Z,50.32
2018-09-29T17:29:31.938Z,50.83
2018-09-29T17:32:03.200Z,50.14
2018-09-29T17:34:34.095Z,50.65
2018-09-29T17:37:05.217Z,52.61
2018-09-29T17:39:36.105Z,52.95
2018-09-29T17:42:07.048Z,52.59
2018-09-29T17:44:37.935Z,52.83
2018-09-29T17:47:08.899Z,52.94
2018-09-29T17:49:39.767Z,52.17
2018-09-29T17:52:10.700Z,51.83
2018-09-29T17:54:41.575Z,50.98
2018-09-29T17:57:12.772Z,50.35
2018-09-29T17:59:51.944Z,50.24
2018-09-29T18:02:22.863Z,51.96
2018-09-29T18:04:53.731Z,51.67
2018-09-29T18:07:24.861Z,51.31
2018-09-29T18:09:56.067Z,51.51
2018-09-29T18:12:27.081Z,51.53
2018-09-29T18:14:57.990Z,51.53
2018-09-29T18:17:28.929Z,51.46
2018-09-29T18:19:59.888Z,50.36
2018-09-29T18:22:30.885Z,49.64
2018-09-29T18:25:01.844Z,49.20
2018-09-29T18:27:37.831Z,48.46
2018-09-29T18:30:09.213Z,52.29
2018-09-29T18:32:40.093Z,50.61
2018-09-29T18:35:10.979Z,51.42
2018-09-29T18:37:41.875Z,49.03
2018-09-29T18:40:12.805Z,50.18
2018-09-29T18:42:44.103Z,51.17
2018-09-29T18:45:15.060Z,50.96
2018-09-29T18:47:46.382Z,50.78
2018-09-29T18:50:17.631Z,49.87
2018-09-29T18:52:48.898Z,50.32
2018-09-29T18:55:20.216Z,51.01
2018-09-29T18:57:51.316Z,51.87
2018-09-29T19:00:22.315Z,51.11
2018-09-29T19:02:53.245Z,51.44
2018-09-29T19:05:24.122Z,50.67
2018-09-29T19:07:55.118Z,50.95
2018-09-29T19:10:26.073Z,50.90
2018-09-29T19:12:57.083Z,50.82
2018-09-29T19:15:28.178Z,49.52
2018-09-29T19:17:59.096Z,50.11
2018-09-29T19:20:29.986Z,53.11
2018-09-29T19:23:01.029Z,53.49
2018-09-29T19:25:31.917Z,52.90
2018-09-29T19:28:02.944Z,53.93
2018-09-29T19:30:33.869Z,51.87
2018-09-29T19:33:04.794Z,51.64
2018-09-29T19:35:35.786Z,52.40
2018-09-29T19:38:06.738Z,51.78
2018-09-29T19:40:37.818Z,52.02
2018-09-29T19:43:08.774Z,52.82
2018-09-29T19:45:39.729Z,52.70
2018-09-29T19:48:10.795Z,52.64
2018-09-29T19:50:41.712Z,51.83
2018-09-29T19:53:12.655Z,51.28
2018-09-29T19:55:43.541Z,51.49
2018-09-29T19:58:14.507Z,52.72
2018-09-29T20:00:50.498Z,52.39
2018-09-29T20:03:26.328Z,53.11
2018-09-29T20:06:02.245Z,53.49
2018-09-29T20:08:38.141Z,53.09
2018-09-29T20:11:14.354Z,53.13
2018-09-29T20:13:50.093Z,51.22
2018-09-29T20:16:26.032Z,52.75
2018-09-29T20:19:02.079Z,52.33
2018-09-29T20:21:38.089Z,51.85
2018-09-29T20:24:14.204Z,51.40
2018-09-29T20:26:50.095Z,51.47
2018-09-29T20:29:25.939Z,51.73
2018-09-29T20:33:26.144Z,53.98
2018-09-29T20:36:02.198Z,54.50
2018-09-29T20:38:37.864Z,53.48
2018-09-29T20:41:13.730Z,53.11
2018-09-29T20:43:49.559Z,54.16
2018-09-29T20:46:25.525Z,53.38
2018-09-29T20:49:01.362Z,52.29
2018-09-29T20:51:37.494Z,50.89
2018-09-29T20:54:13.435Z,53.31
2018-09-29T20:56:50.385Z,53.90
2018-09-29T20:59:26.163Z,54.50
2018-09-29T21:02:02.168Z,53.80
2018-09-29T21:04:38.016Z,53.33
2018-09-29T21:07:13.896Z,52.70
2018-09-29T21:09:49.721Z,53.96
2018-09-29T21:12:25.601Z,55.49
2018-09-29T21:15:01.424Z,57.18
2018-09-29T21:17:37.339Z,57.06
2018-09-29T21:20:13.225Z,55.97
2018-09-29T21:22:49.096Z,55.03
2018-09-29T21:25:25.162Z,56.69
2018-09-29T21:28:01.173Z,57.22
2018-09-29T21:30:37.044Z,56.68
2018-09-29T21:33:13.368Z,57.47
2018-09-29T21:35:49.236Z,58.36
2018-09-29T21:38:25.143Z,59.34
2018-09-29T21:41:01.008Z,59.11
2018-09-29T21:43:37.008Z,58.69
2018-09-29T21:46:12.824Z,57.20
2018-09-29T21:48:49.032Z,58.06
2018-09-29T21:51:24.912Z,58.74
2018-09-29T21:54:01.083Z,61.03
2018-09-29T21:56:37.530Z,61.86
2018-09-29T21:59:13.559Z,61.47
2018-09-29T22:01:49.413Z,60.99
2018-09-29T22:04:25.520Z,59.72
2018-09-29T22:08:25.502Z,58.58
2018-09-29T22:11:01.407Z,58.41
2018-09-29T22:13:37.200Z,57.57
2018-09-29T22:16:13.057Z,56.89
2018-09-29T22:18:49.141Z,56.26
2018-09-29T22:21:29.299Z,57.48
2018-09-29T22:24:05.248Z,53.50
2018-09-29T22:26:44.005Z,52.67
2018-09-29T22:29:19.811Z,52.92
2018-09-29T22:31:55.739Z,54.62
2018-09-29T22:34:31.856Z,56.59
2018-09-29T22:37:08.037Z,56.83
2018-09-29T22:39:43.800Z,55.55
2018-09-29T22:42:19.652Z,56.10
2018-09-29T22:44:57.176Z,57.44
2018-09-29T22:47:33.179Z,57.20
2018-09-29T22:50:09.017Z,56.12
2018-09-29T22:52:44.931Z,56.12
2018-09-29T22:55:20.752Z,57.02
2018-09-29T22:57:56.643Z,58.03
2018-09-29T23:00:33.334Z,57.92
2018-09-29T23:03:09.274Z,58.99
2018-09-29T23:05:45.301Z,58.12
2018-09-29T23:08:21.985Z,57.46
2018-09-29T23:10:57.902Z,57.85
2018-09-29T23:13:33.743Z,57.64
2018-09-29T23:16:10.091Z,58.61
2018-09-29T23:18:45.968Z,58.72
2018-09-29T23:21:21.845Z,59.44
2018-09-29T23:23:57.767Z,58.24
2018-09-29T23:26:33.854Z,58.15
2018-09-29T23:29:09.970Z,60.43
2018-09-29T23:31:45.787Z,61.65
2018-09-29T23:34:21.657Z,63.33
2018-09-29T23:36:57.492Z,62.79
2018-09-29T23:39:33.370Z,61.50
2018-09-29T23:42:09.185Z,61.92
2018-09-29T23:44:45.036Z,61.05
2018-09-29T23:47:20.939Z,59.69
2018-09-29T23:49:56.887Z,60.09
2018-09-29T23:52:32.711Z,59.88
2018-09-29T23:55:08.527Z,59.50
2018-09-29T23:57:44.365Z,59.82
